sensor_id;sensor_type;location;lat;lon;timestamp;pressure;altitude;pressure_sealevel;temperature;humidity
54806;BME280;62866;55.776;37.496;2023-04-06T00:01:38;100531.69;;;5.05;78.44
54806;BME280;62866;55.776;37.496;2023-04-06T00:04:04;100536.44;;;5.02;77.70
54806;BME280;62866;55.776;37.496;2023-04-06T00:06:30;100527.19;;;4.96;78.38
54806;BME280;62866;55.776;37.496;2023-04-06T00:08:55;100539.50;;;4.97;78.21
54806;BME280;62866;55.776;37.496;2023-04-06T00:11:22;100538.94;;;4.93;78.74
54806;BME280;62866;55.776;37.496;2023-04-06T00:13:47;100545.34;;;4.91;78.26
54806;BME280;62866;55.776;37.496;2023-04-06T00:16:13;100530.66;;;4.87;78.42
54806;BME280;62866;55.776;37.496;2023-04-06T00:18:39;100533.84;;;4.81;78.30
54806;BME280;62866;55.776;37.496;2023-04-06T00:21:04;100545.16;;;4.83;78.54
54806;BME280;62866;55.776;37.496;2023-04-06T00:23:31;100544.56;;;4.79;78.43
54806;BME280;62866;55.776;37.496;2023-04-06T00:25:56;100541.63;;;4.73;78.53
54806;BME280;62866;55.776;37.496;2023-04-06T00:28:22;100544.41;;;4.71;78.92
54806;BME280;62866;55.776;37.496;2023-04-06T00:30:51;100541.03;;;4.69;78.57
54806;BME280;62866;55.776;37.496;2023-04-06T00:33:21;100548.31;;;4.67;78.44
54806;BME280;62866;55.776;37.496;2023-04-06T00:35:47;100537.25;;;4.62;78.73
54806;BME280;62866;55.776;37.496;2023-04-06T00:38:14;100538.81;;;4.65;79.08
54806;BME280;62866;55.776;37.496;2023-04-06T00:40:40;100538.22;;;4.61;79.03
54806;BME280;62866;55.776;37.496;2023-04-06T00:43:06;100517.38;;;4.47;78.79
54806;BME280;62866;55.776;37.496;2023-04-06T00:45:34;100548.25;;;4.57;79.04
54806;BME280;62866;55.776;37.496;2023-04-06T00:48:00;100533.69;;;4.52;79.40
54806;BME280;62866;55.776;37.496;2023-04-06T00:50:27;100534.94;;;4.48;79.21
54806;BME280;62866;55.776;37.496;2023-04-06T00:52:54;100535.97;;;4.56;79.12
54806;BME280;62866;55.776;37.496;2023-04-06T00:55:20;100529.41;;;4.51;79.91
54806;BME280;62866;55.776;37.496;2023-04-06T00:57:45;100528.41;;;4.52;79.58
54806;BME280;62866;55.776;37.496;2023-04-06T01:00:11;100531.34;;;4.49;79.07
54806;BME280;62866;55.776;37.496;2023-04-06T01:02:37;100529.53;;;4.49;79.83
54806;BME280;62866;55.776;37.496;2023-04-06T01:05:03;100536.50;;;4.50;79.52
54806;BME280;62866;55.776;37.496;2023-04-06T01:07:29;100536.88;;;4.46;79.69
54806;BME280;62866;55.776;37.496;2023-04-06T01:09:55;100531.88;;;4.43;79.84
54806;BME280;62866;55.776;37.496;2023-04-06T01:12:21;100538.25;;;4.40;79.10
54806;BME280;62866;55.776;37.496;2023-04-06T01:14:46;100530.13;;;4.32;79.93
54806;BME280;62866;55.776;37.496;2023-04-06T01:17:12;100526.66;;;4.32;79.50
54806;BME280;62866;55.776;37.496;2023-04-06T01:19:37;100516.59;;;4.26;80.12
54806;BME280;62866;55.776;37.496;2023-04-06T01:22:05;100516.72;;;4.24;80.12
54806;BME280;62866;55.776;37.496;2023-04-06T01:24:31;100520.31;;;4.23;80.28
54806;BME280;62866;55.776;37.496;2023-04-06T01:26:57;100522.97;;;4.23;79.71
54806;BME280;62866;55.776;37.496;2023-04-06T01:29:22;100531.75;;;4.24;80.03
54806;BME280;62866;55.776;37.496;2023-04-06T01:31:48;100516.66;;;4.14;80.12
54806;BME280;62866;55.776;37.496;2023-04-06T01:34:13;100526.81;;;4.19;80.50
54806;BME280;62866;55.776;37.496;2023-04-06T01:36:39;100504.91;;;4.07;80.27
54806;BME280;62866;55.776;37.496;2023-04-06T01:39:05;100521.53;;;4.19;80.31
54806;BME280;62866;55.776;37.496;2023-04-06T01:41:30;100535.03;;;4.16;80.33
54806;BME280;62866;55.776;37.496;2023-04-06T01:43:56;100526.25;;;4.15;80.56
54806;BME280;62866;55.776;37.496;2023-04-06T01:46:22;100523.44;;;4.07;79.97
54806;BME280;62866;55.776;37.496;2023-04-06T01:48:47;100526.19;;;4.06;80.14
54806;BME280;62866;55.776;37.496;2023-04-06T01:51:13;100528.00;;;4.05;80.22
54806;BME280;62866;55.776;37.496;2023-04-06T01:53:38;100522.13;;;4.02;80.67
54806;BME280;62866;55.776;37.496;2023-04-06T01:56:04;100525.47;;;4.04;80.68
54806;BME280;62866;55.776;37.496;2023-04-06T01:58:30;100519.75;;;3.99;81.05
54806;BME280;62866;55.776;37.496;2023-04-06T02:00:55;100521.78;;;3.95;80.53
54806;BME280;62866;55.776;37.496;2023-04-06T02:03:21;100524.31;;;3.97;80.54
54806;BME280;62866;55.776;37.496;2023-04-06T02:05:47;100514.25;;;3.91;80.67
54806;BME280;62866;55.776;37.496;2023-04-06T02:08:12;100521.22;;;3.92;80.51
54806;BME280;62866;55.776;37.496;2023-04-06T02:10:38;100523.03;;;3.91;80.56
54806;BME280;62866;55.776;37.496;2023-04-06T02:13:04;100520.50;;;3.90;80.58
54806;BME280;62866;55.776;37.496;2023-04-06T02:15:29;100521.88;;;3.84;81.47
54806;BME280;62866;55.776;37.496;2023-04-06T02:17:55;100533.97;;;3.87;81.21
54806;BME280;62866;55.776;37.496;2023-04-06T02:20:20;100541.78;;;3.88;81.45
54806;BME280;62866;55.776;37.496;2023-04-06T02:22:46;100542.88;;;3.86;81.70
54806;BME280;62866;55.776;37.496;2023-04-06T02:25:12;100528.63;;;3.77;81.44
54806;BME280;62866;55.776;37.496;2023-04-06T02:27:37;100534.06;;;3.75;81.38
54806;BME280;62866;55.776;37.496;2023-04-06T02:30:03;100538.38;;;3.76;81.62
54806;BME280;62866;55.776;37.496;2023-04-06T02:32:29;100544.63;;;3.75;81.84
54806;BME280;62866;55.776;37.496;2023-04-06T02:34:55;100544.03;;;3.72;81.73
54806;BME280;62866;55.776;37.496;2023-04-06T02:37:21;100551.44;;;3.78;81.95
54806;BME280;62866;55.776;37.496;2023-04-06T02:39:48;100531.31;;;3.66;82.27
54806;BME280;62866;55.776;37.496;2023-04-06T02:42:14;100548.97;;;3.76;82.24
54806;BME280;62866;55.776;37.496;2023-04-06T02:44:41;100536.72;;;3.64;82.74
54806;BME280;62866;55.776;37.496;2023-04-06T02:47:07;100552.56;;;3.75;82.20
54806;BME280;62866;55.776;37.496;2023-04-06T02:49:32;100551.72;;;3.75;82.45
54806;BME280;62866;55.776;37.496;2023-04-06T02:51:58;100575.53;;;3.75;82.55
54806;BME280;62866;55.776;37.496;2023-04-06T02:54:23;100560.13;;;3.69;82.63
54806;BME280;62866;55.776;37.496;2023-04-06T02:56:49;100572.75;;;3.76;83.17
54806;BME280;62866;55.776;37.496;2023-04-06T02:59:15;100558.50;;;3.68;83.24
54806;BME280;62866;55.776;37.496;2023-04-06T03:01:40;100568.56;;;3.74;83.21
54806;BME280;62866;55.776;37.496;2023-04-06T03:04:06;100576.09;;;3.78;82.79
54806;BME280;62866;55.776;37.496;2023-04-06T03:06:31;100576.09;;;3.78;82.12
54806;BME280;62866;55.776;37.496;2023-04-06T03:08:57;100580.81;;;3.75;82.98
54806;BME280;62866;55.776;37.496;2023-04-06T03:11:22;100570.69;;;3.80;82.92
54806;BME280;62866;55.776;37.496;2023-04-06T03:13:48;100571.28;;;3.84;82.24
54806;BME280;62866;55.776;37.496;2023-04-06T03:16:14;100578.84;;;3.88;82.24
54806;BME280;62866;55.776;37.496;2023-04-06T03:18:39;100575.47;;;3.86;82.17
54806;BME280;62866;55.776;37.496;2023-04-06T03:21:05;100577.28;;;3.86;82.12
54806;BME280;62866;55.776;37.496;2023-04-06T03:23:32;100584.13;;;3.88;81.77
54806;BME280;62866;55.776;37.496;2023-04-06T03:25:57;100573.41;;;3.90;81.92
54806;BME280;62866;55.776;37.496;2023-04-06T03:28:23;100573.75;;;3.96;81.52
54806;BME280;62866;55.776;37.496;2023-04-06T03:30:49;100588.53;;;3.99;81.38
54806;BME280;62866;55.776;37.496;2023-04-06T03:33:15;100592.75;;;4.01;81.63
54806;BME280;62866;55.776;37.496;2023-04-06T03:35:40;100594.56;;;4.01;81.09
54806;BME280;62866;55.776;37.496;2023-04-06T03:38:06;100600.53;;;4.03;81.22
54806;BME280;62866;55.776;37.496;2023-04-06T03:40:31;100587.56;;;4.00;81.15
54806;BME280;62866;55.776;37.496;2023-04-06T03:42:57;100591.84;;;4.12;81.36
54806;BME280;62866;55.776;37.496;2023-04-06T03:45:23;100606.22;;;4.19;81.08
54806;BME280;62866;55.776;37.496;2023-04-06T03:47:48;100601.66;;;4.21;80.75
54806;BME280;62866;55.776;37.496;2023-04-06T03:50:14;100606.69;;;4.24;80.44
54806;BME280;62866;55.776;37.496;2023-04-06T03:52:39;100579.31;;;4.14;81.08
54806;BME280;62866;55.776;37.496;2023-04-06T03:55:06;100611.88;;;4.26;80.09
54806;BME280;62866;55.776;37.496;2023-04-06T03:57:31;100605.81;;;4.35;79.94
54806;BME280;62866;55.776;37.496;2023-04-06T03:59:57;100616.13;;;4.38;80.10
54806;BME280;62866;55.776;37.496;2023-04-06T04:02:23;100606.38;;;4.38;79.58
54806;BME280;62866;55.776;37.496;2023-04-06T04:04:48;100611.88;;;4.46;79.56
54806;BME280;62866;55.776;37.496;2023-04-06T04:07:14;100617.88;;;4.48;78.99
54806;BME280;62866;55.776;37.496;2023-04-06T04:09:39;100613.66;;;4.46;78.88
54806;BME280;62866;55.776;37.496;2023-04-06T04:12:05;100608.06;;;4.39;79.38
54806;BME280;62866;55.776;37.496;2023-04-06T04:14:31;100611.75;;;4.48;79.41
54806;BME280;62866;55.776;37.496;2023-04-06T04:16:57;100612.91;;;4.55;79.37
54806;BME280;62866;55.776;37.496;2023-04-06T04:19:22;100619.88;;;4.56;79.18
54806;BME280;62866;55.776;37.496;2023-04-06T04:21:48;100619.63;;;4.59;79.02
54806;BME280;62866;55.776;37.496;2023-04-06T04:24:13;100624.28;;;4.67;79.40
54806;BME280;62866;55.776;37.496;2023-04-06T04:26:39;100627.47;;;4.70;78.83
54806;BME280;62866;55.776;37.496;2023-04-06T04:29:06;100631.69;;;4.73;78.50
54806;BME280;62866;55.776;37.496;2023-04-06T04:31:31;100627.81;;;4.77;78.30
54806;BME280;62866;55.776;37.496;2023-04-06T04:33:58;100620.19;;;4.83;77.87
54806;BME280;62866;55.776;37.496;2023-04-06T04:36:23;100623.94;;;4.81;77.71
54806;BME280;62866;55.776;37.496;2023-04-06T04:38:51;100622.44;;;4.88;77.30
54806;BME280;62866;55.776;37.496;2023-04-06T04:41:17;100625.78;;;4.90;77.89
54806;BME280;62866;55.776;37.496;2023-04-06T04:43:43;100627.19;;;4.94;77.70
54806;BME280;62866;55.776;37.496;2023-04-06T04:46:08;100609.47;;;4.94;76.88
54806;BME280;62866;55.776;37.496;2023-04-06T04:48:37;100634.69;;;5.10;76.92
54806;BME280;62866;55.776;37.496;2023-04-06T04:51:04;100628.97;;;5.14;76.55
54806;BME280;62866;55.776;37.496;2023-04-06T04:53:30;100636.53;;;5.19;76.27
54806;BME280;62866;55.776;37.496;2023-04-06T04:55:55;100629.13;;;5.22;76.56
54806;BME280;62866;55.776;37.496;2023-04-06T04:58:21;100636.41;;;5.30;76.05
54806;BME280;62866;55.776;37.496;2023-04-06T05:00:46;100622.34;;;5.39;75.63
54806;BME280;62866;55.776;37.496;2023-04-06T05:03:18;100636.50;;;5.49;75.21
54806;BME280;62866;55.776;37.496;2023-04-06T05:05:45;100631.59;;;5.54;75.29
54806;BME280;62866;55.776;37.496;2023-04-06T05:08:11;100626.59;;;5.61;75.12
54806;BME280;62866;55.776;37.496;2023-04-06T05:10:37;100626.09;;;5.77;74.93
54806;BME280;62866;55.776;37.496;2023-04-06T05:13:02;100625.53;;;5.83;74.70
54806;BME280;62866;55.776;37.496;2023-04-06T05:15:28;100626.69;;;5.90;74.32
54806;BME280;62866;55.776;37.496;2023-04-06T05:17:54;100635.50;;;6.00;73.96
54806;BME280;62866;55.776;37.496;2023-04-06T05:20:20;100625.59;;;6.02;73.63
54806;BME280;62866;55.776;37.496;2023-04-06T05:22:45;100635.22;;;6.13;73.34
54806;BME280;62866;55.776;37.496;2023-04-06T05:25:11;100625.03;;;6.27;72.91
54806;BME280;62866;55.776;37.496;2023-04-06T05:27:36;100633.41;;;6.32;71.63
54806;BME280;62866;55.776;37.496;2023-04-06T05:30:02;100633.81;;;6.37;71.64
54806;BME280;62866;55.776;37.496;2023-04-06T05:32:28;100633.25;;;6.53;71.40
54806;BME280;62866;55.776;37.496;2023-04-06T05:34:54;100619.41;;;6.59;71.15
54806;BME280;62866;55.776;37.496;2023-04-06T05:37:20;100631.41;;;6.73;71.13
54806;BME280;62866;55.776;37.496;2023-04-06T05:39:45;100619.19;;;6.80;70.21
54806;BME280;62866;55.776;37.496;2023-04-06T05:42:11;100637.00;;;7.16;68.99
54806;BME280;62866;55.776;37.496;2023-04-06T05:44:37;100644.28;;;9.61;64.04
54806;BME280;62866;55.776;37.496;2023-04-06T05:47:03;100632.97;;;11.68;57.38
54806;BME280;62866;55.776;37.496;2023-04-06T05:49:29;100626.03;;;13.25;53.78
54806;BME280;62866;55.776;37.496;2023-04-06T05:51:55;100621.13;;;14.79;49.91
54806;BME280;62866;55.776;37.496;2023-04-06T05:54:20;100621.69;;;15.72;47.21
54806;BME280;62866;55.776;37.496;2023-04-06T05:56:46;100631.13;;;16.15;46.01
54806;BME280;62866;55.776;37.496;2023-04-06T05:59:12;100631.97;;;16.09;45.04
54806;BME280;62866;55.776;37.496;2023-04-06T06:01:37;100637.50;;;15.81;45.53
54806;BME280;62866;55.776;37.496;2023-04-06T06:04:03;100629.75;;;16.92;44.58
54806;BME280;62866;55.776;37.496;2023-04-06T06:06:29;100625.19;;;17.76;42.96
54806;BME280;62866;55.776;37.496;2023-04-06T06:08:57;100616.72;;;18.92;39.70
54806;BME280;62866;55.776;37.496;2023-04-06T06:11:27;100619.34;;;19.60;38.97
54806;BME280;62866;55.776;37.496;2023-04-06T06:13:52;100613.06;;;19.05;39.67
54806;BME280;62866;55.776;37.496;2023-04-06T06:16:18;100627.81;;;18.66;40.96
54806;BME280;62866;55.776;37.496;2023-04-06T06:18:44;100616.63;;;19.60;40.30
54806;BME280;62866;55.776;37.496;2023-04-06T06:21:10;100618.44;;;19.29;39.45
54806;BME280;62866;55.776;37.496;2023-04-06T06:23:38;100620.91;;;18.38;41.54
54806;BME280;62866;55.776;37.496;2023-04-06T06:26:04;100611.28;;;18.42;39.92
54806;BME280;62866;55.776;37.496;2023-04-06T06:28:30;100617.84;;;18.60;39.61
54806;BME280;62866;55.776;37.496;2023-04-06T06:30:56;100620.06;;;18.06;40.19
54806;BME280;62866;55.776;37.496;2023-04-06T06:33:21;100618.53;;;18.17;39.64
54806;BME280;62866;55.776;37.496;2023-04-06T06:35:47;100614.78;;;18.49;38.82
54806;BME280;62866;55.776;37.496;2023-04-06T06:38:12;100612.59;;;18.65;38.45
54806;BME280;62866;55.776;37.496;2023-04-06T06:40:39;100609.81;;;16.99;40.87
54806;BME280;62866;55.776;37.496;2023-04-06T06:43:05;100625.38;;;16.31;42.61
54806;BME280;62866;55.776;37.496;2023-04-06T06:45:31;100618.50;;;16.49;42.39
54806;BME280;62866;55.776;37.496;2023-04-06T06:47:57;100609.97;;;17.31;40.86
54806;BME280;62866;55.776;37.496;2023-04-06T06:50:22;100612.25;;;18.23;39.31
54806;BME280;62866;55.776;37.496;2023-04-06T06:52:48;100618.78;;;18.97;39.09
54806;BME280;62866;55.776;37.496;2023-04-06T06:55:13;100611.50;;;19.70;36.94
54806;BME280;62866;55.776;37.496;2023-04-06T06:57:40;100616.94;;;20.30;35.47
54806;BME280;62866;55.776;37.496;2023-04-06T07:00:08;100615.50;;;20.16;35.74
54806;BME280;62866;55.776;37.496;2023-04-06T07:02:35;100606.31;;;19.32;36.70
54806;BME280;62866;55.776;37.496;2023-04-06T07:05:03;100610.34;;;17.99;38.84
54806;BME280;62866;55.776;37.496;2023-04-06T07:07:31;100617.84;;;17.39;39.88
54806;BME280;62866;55.776;37.496;2023-04-06T07:09:57;100613.19;;;18.35;39.14
54806;BME280;62866;55.776;37.496;2023-04-06T07:12:22;100603.97;;;19.72;37.07
54806;BME280;62866;55.776;37.496;2023-04-06T07:14:48;100602.03;;;20.86;35.47
54806;BME280;62866;55.776;37.496;2023-04-06T07:17:14;100609.06;;;22.08;33.93
54806;BME280;62866;55.776;37.496;2023-04-06T07:19:42;100606.75;;;22.79;33.15
54806;BME280;62866;55.776;37.496;2023-04-06T07:22:08;100596.16;;;22.99;32.37
54806;BME280;62866;55.776;37.496;2023-04-06T07:24:34;100605.25;;;23.04;31.82
54806;BME280;62866;55.776;37.496;2023-04-06T07:26:59;100605.56;;;22.41;32.31
54806;BME280;62866;55.776;37.496;2023-04-06T07:29:28;100605.91;;;22.00;32.68
54806;BME280;62866;55.776;37.496;2023-04-06T07:31:54;100603.72;;;21.73;33.70
54806;BME280;62866;55.776;37.496;2023-04-06T07:34:21;100602.66;;;22.31;32.36
54806;BME280;62866;55.776;37.496;2023-04-06T07:36:46;100607.97;;;22.71;32.12
54806;BME280;62866;55.776;37.496;2023-04-06T07:39:12;100602.75;;;23.03;31.72
54806;BME280;62866;55.776;37.496;2023-04-06T07:41:37;100595.63;;;23.57;31.61
54806;BME280;62866;55.776;37.496;2023-04-06T07:44:03;100601.13;;;24.70;30.03
54806;BME280;62866;55.776;37.496;2023-04-06T07:46:30;100594.53;;;24.98;29.50
54806;BME280;62866;55.776;37.496;2023-04-06T07:48:57;100600.88;;;24.39;29.81
54806;BME280;62866;55.776;37.496;2023-04-06T07:51:23;100609.56;;;24.63;29.27
54806;BME280;62866;55.776;37.496;2023-04-06T07:53:50;100587.69;;;24.63;29.00
54806;BME280;62866;55.776;37.496;2023-04-06T07:56:16;100588.63;;;25.68;28.58
54806;BME280;62866;55.776;37.496;2023-04-06T07:58:42;100586.72;;;25.79;28.05
54806;BME280;62866;55.776;37.496;2023-04-06T08:01:07;100579.84;;;25.66;28.39
54806;BME280;62866;55.776;37.496;2023-04-06T08:03:36;100595.00;;;24.89;28.60
54806;BME280;62866;55.776;37.496;2023-04-06T08:06:02;100586.00;;;24.25;28.95
54806;BME280;62866;55.776;37.496;2023-04-06T08:08:28;100590.09;;;23.14;30.29
54806;BME280;62866;55.776;37.496;2023-04-06T08:10:57;100586.81;;;22.61;30.33
54806;BME280;62866;55.776;37.496;2023-04-06T08:13:23;100591.78;;;22.03;31.13
54806;BME280;62866;55.776;37.496;2023-04-06T08:15:49;100577.22;;;21.69;31.45
54806;BME280;62866;55.776;37.496;2023-04-06T08:18:14;100591.72;;;21.57;31.43
54806;BME280;62866;55.776;37.496;2023-04-06T08:20:40;100592.00;;;21.73;31.87
54806;BME280;62866;55.776;37.496;2023-04-06T08:23:09;100577.66;;;22.17;31.40
54806;BME280;62866;55.776;37.496;2023-04-06T08:25:36;100584.44;;;22.82;30.41
54806;BME280;62866;55.776;37.496;2023-04-06T08:28:03;100588.19;;;23.74;29.74
54806;BME280;62866;55.776;37.496;2023-04-06T08:30:29;100586.94;;;24.73;28.75
54806;BME280;62866;55.776;37.496;2023-04-06T08:32:55;100585.97;;;25.36;28.08
54806;BME280;62866;55.776;37.496;2023-04-06T08:35:20;100576.06;;;25.87;26.66
54806;BME280;62866;55.776;37.496;2023-04-06T08:37:46;100584.88;;;24.90;27.64
54806;BME280;62866;55.776;37.496;2023-04-06T08:40:13;100590.03;;;24.86;27.52
54806;BME280;62866;55.776;37.496;2023-04-06T08:42:50;100577.47;;;24.85;27.69
54806;BME280;62866;55.776;37.496;2023-04-06T08:45:17;100582.69;;;24.23;27.96
54806;BME280;62866;55.776;37.496;2023-04-06T08:47:50;100587.47;;;24.11;28.06
54806;BME280;62866;55.776;37.496;2023-04-06T08:50:16;100568.91;;;23.59;28.45
54806;BME280;62866;55.776;37.496;2023-04-06T08:52:47;100565.00;;;23.33;28.78
54806;BME280;62866;55.776;37.496;2023-04-06T08:55:13;100566.09;;;22.77;29.49
54806;BME280;62866;55.776;37.496;2023-04-06T08:57:39;100562.81;;;23.35;29.15
54806;BME280;62866;55.776;37.496;2023-04-06T09:00:07;100578.25;;;23.90;28.51
54806;BME280;62866;55.776;37.496;2023-04-06T09:02:39;100566.91;;;23.76;28.67
54806;BME280;62866;55.776;37.496;2023-04-06T09:05:07;100583.81;;;23.52;28.27
54806;BME280;62866;55.776;37.496;2023-04-06T09:07:33;100564.59;;;22.86;28.77
54806;BME280;62866;55.776;37.496;2023-04-06T09:09:59;100564.94;;;22.23;29.33
54806;BME280;62866;55.776;37.496;2023-04-06T09:12:26;100568.34;;;21.10;30.72
54806;BME280;62866;55.776;37.496;2023-04-06T09:14:53;100560.22;;;20.98;30.94
54806;BME280;62866;55.776;37.496;2023-04-06T09:17:26;100581.34;;;20.61;31.56
54806;BME280;62866;55.776;37.496;2023-04-06T09:19:52;100567.03;;;20.42;31.58
54806;BME280;62866;55.776;37.496;2023-04-06T09:22:18;100565.91;;;19.79;32.17
54806;BME280;62866;55.776;37.496;2023-04-06T09:24:54;100575.75;;;18.01;34.13
54806;BME280;62866;55.776;37.496;2023-04-06T09:27:36;100557.28;;;16.56;36.29
54806;BME280;62866;55.776;37.496;2023-04-06T09:30:12;100568.38;;;15.74;37.56
54806;BME280;62866;55.776;37.496;2023-04-06T09:35:20;100560.31;;;14.92;39.02
54806;BME280;62866;55.776;37.496;2023-04-06T09:37:51;100595.56;;;14.69;39.42
54806;BME280;62866;55.776;37.496;2023-04-06T09:40:20;100575.94;;;14.26;40.38
54806;BME280;62866;55.776;37.496;2023-04-06T09:42:48;100573.31;;;14.11;40.61
54806;BME280;62866;55.776;37.496;2023-04-06T09:45:17;100567.34;;;14.16;41.02
54806;BME280;62866;55.776;37.496;2023-04-06T09:47:43;100569.78;;;14.11;40.96
54806;BME280;62866;55.776;37.496;2023-04-06T09:50:11;100568.91;;;14.03;41.70
54806;BME280;62866;55.776;37.496;2023-04-06T09:52:38;100564.97;;;14.06;42.23
54806;BME280;62866;55.776;37.496;2023-04-06T09:55:05;100566.31;;;14.17;41.83
54806;BME280;62866;55.776;37.496;2023-04-06T09:57:52;100581.56;;;14.10;41.31
54806;BME280;62866;55.776;37.496;2023-04-06T10:00:22;100565.09;;;13.98;41.59
54806;BME280;62866;55.776;37.496;2023-04-06T10:05:55;100567.88;;;14.04;41.40
54806;BME280;62866;55.776;37.496;2023-04-06T10:08:24;100564.34;;;14.04;41.24
54806;BME280;62866;55.776;37.496;2023-04-06T10:10:54;100554.56;;;13.96;41.28
54806;BME280;62866;55.776;37.496;2023-04-06T10:13:20;100551.94;;;14.03;41.56
54806;BME280;62866;55.776;37.496;2023-04-06T10:15:46;100551.53;;;14.06;41.18
54806;BME280;62866;55.776;37.496;2023-04-06T10:18:12;100547.38;;;14.03;41.05
54806;BME280;62866;55.776;37.496;2023-04-06T10:20:46;100559.09;;;13.96;41.59
54806;BME280;62866;55.776;37.496;2023-04-06T10:25:57;100548.91;;;13.91;41.26
54806;BME280;62866;55.776;37.496;2023-04-06T10:28:23;100540.13;;;13.83;41.89
54806;BME280;62866;55.776;37.496;2023-04-06T10:30:56;100556.47;;;14.02;42.21
54806;BME280;62866;55.776;37.496;2023-04-06T10:33:22;100555.19;;;14.20;41.29
54806;BME280;62866;55.776;37.496;2023-04-06T10:35:48;100535.28;;;14.14;41.33
54806;BME280;62866;55.776;37.496;2023-04-06T10:38:14;100554.16;;;14.21;40.69
54806;BME280;62866;55.776;37.496;2023-04-06T10:40:42;100559.28;;;14.16;40.41
54806;BME280;62866;55.776;37.496;2023-04-06T10:43:22;100549.66;;;14.06;40.74
54806;BME280;62866;55.776;37.496;2023-04-06T10:46:00;100552.75;;;14.03;40.97
54806;BME280;62866;55.776;37.496;2023-04-06T10:48:36;100530.28;;;13.90;41.01
54806;BME280;62866;55.776;37.496;2023-04-06T10:51:08;100548.78;;;13.99;40.93
54806;BME280;62866;55.776;37.496;2023-04-06T10:53:34;100548.22;;;14.04;41.15
54806;BME280;62866;55.776;37.496;2023-04-06T10:56:00;100546.84;;;14.15;41.65
54806;BME280;62866;55.776;37.496;2023-04-06T10:58:27;100543.97;;;14.16;41.75
54806;BME280;62866;55.776;37.496;2023-04-06T11:00:54;100543.41;;;14.21;41.16
54806;BME280;62866;55.776;37.496;2023-04-06T11:03:20;100537.56;;;14.17;41.40
54806;BME280;62866;55.776;37.496;2023-04-06T11:05:51;100548.25;;;14.32;41.33
54806;BME280;62866;55.776;37.496;2023-04-06T11:08:29;100547.41;;;14.31;41.14
54806;BME280;62866;55.776;37.496;2023-04-06T11:11:12;100531.22;;;14.25;41.02
54806;BME280;62866;55.776;37.496;2023-04-06T11:13:44;100539.78;;;14.35;40.74
54806;BME280;62866;55.776;37.496;2023-04-06T11:16:14;100543.66;;;14.26;40.73
54806;BME280;62866;55.776;37.496;2023-04-06T11:21:15;100537.88;;;14.29;40.64
54806;BME280;62866;55.776;37.496;2023-04-06T11:23:40;100543.28;;;14.29;40.74
54806;BME280;62866;55.776;37.496;2023-04-06T11:26:13;100549.72;;;14.34;41.00
54806;BME280;62866;55.776;37.496;2023-04-06T11:28:42;100531.03;;;14.26;40.74
54806;BME280;62866;55.776;37.496;2023-04-06T11:31:09;100529.63;;;14.30;40.86
54806;BME280;62866;55.776;37.496;2023-04-06T11:33:37;100534.19;;;14.30;40.64
54806;BME280;62866;55.776;37.496;2023-04-06T11:36:04;100538.28;;;14.47;40.69
54806;BME280;62866;55.776;37.496;2023-04-06T11:38:30;100528.59;;;14.53;40.39
54806;BME280;62866;55.776;37.496;2023-04-06T11:40:55;100539.00;;;14.62;40.40
54806;BME280;62866;55.776;37.496;2023-04-06T11:43:29;100532.34;;;14.58;40.55
54806;BME280;62866;55.776;37.496;2023-04-06T11:46:02;100540.81;;;14.55;40.58
54806;BME280;62866;55.776;37.496;2023-04-06T11:48:29;100533.72;;;14.48;40.38
54806;BME280;62866;55.776;37.496;2023-04-06T11:50:58;100532.69;;;14.49;40.90
54806;BME280;62866;55.776;37.496;2023-04-06T11:53:29;100525.06;;;14.52;40.46
54806;BME280;62866;55.776;37.496;2023-04-06T11:55:55;100542.91;;;14.60;40.40
54806;BME280;62866;55.776;37.496;2023-04-06T11:58:21;100531.66;;;14.50;40.39
54806;BME280;62866;55.776;37.496;2023-04-06T12:00:47;100519.38;;;14.40;40.52
54806;BME280;62866;55.776;37.496;2023-04-06T12:03:12;100526.03;;;14.45;40.28
54806;BME280;62866;55.776;37.496;2023-04-06T12:05:38;100523.91;;;14.40;40.79
54806;BME280;62866;55.776;37.496;2023-04-06T12:08:04;100525.03;;;14.46;40.80
54806;BME280;62866;55.776;37.496;2023-04-06T12:10:30;100522.53;;;14.44;40.76
54806;BME280;62866;55.776;37.496;2023-04-06T12:12:55;100533.09;;;14.46;41.30
54806;BME280;62866;55.776;37.496;2023-04-06T12:15:21;100538.66;;;14.44;40.67
54806;BME280;62866;55.776;37.496;2023-04-06T12:17:47;100525.28;;;14.29;40.47
54806;BME280;62866;55.776;37.496;2023-04-06T12:20:13;100522.13;;;14.26;40.72
54806;BME280;62866;55.776;37.496;2023-04-06T12:22:39;100520.13;;;14.34;40.43
54806;BME280;62866;55.776;37.496;2023-04-06T12:25:05;100527.44;;;14.40;40.08
54806;BME280;62866;55.776;37.496;2023-04-06T12:27:32;100525.28;;;14.29;40.46
54806;BME280;62866;55.776;37.496;2023-04-06T12:29:57;100520.91;;;14.28;40.87
54806;BME280;62866;55.776;37.496;2023-04-06T12:32:23;100524.00;;;14.25;41.07
54806;BME280;62866;55.776;37.496;2023-04-06T12:34:49;100530.38;;;14.24;40.98
54806;BME280;62866;55.776;37.496;2023-04-06T12:37:14;100515.09;;;14.25;40.88
54806;BME280;62866;55.776;37.496;2023-04-06T12:39:40;100513.03;;;14.27;40.29
54806;BME280;62866;55.776;37.496;2023-04-06T12:42:06;100515.09;;;14.25;40.39
54806;BME280;62866;55.776;37.496;2023-04-06T12:44:32;100515.53;;;14.28;40.33
54806;BME280;62866;55.776;37.496;2023-04-06T12:46:57;100505.44;;;14.30;40.46
54806;BME280;62866;55.776;37.496;2023-04-06T12:49:23;100514.81;;;14.41;40.11
54806;BME280;62866;55.776;37.496;2023-04-06T12:51:48;100499.50;;;14.41;40.04
54806;BME280;62866;55.776;37.496;2023-04-06T12:54:15;100513.22;;;14.47;40.49